Marion Station, Maryland
Current Conditions -  °F | °C
As of 1:54 AM on Thursday 23 Oct 2014 (Local Time) from KWAL Reporting Station
Overcast Overcast  
Wind Chill: 55°   Ceiling: 2700
Heat Index: 55°   Visibility: 10mi
Dew Point: 47°   Wind: 14mph
Humidity: 74%   Direction: 340°NNW
Pressure: 29.8"   Gusts: 24mph
Location:  38.03°N, 75.76°W
Report Text: KWAL 230554Z AUTO 34012G21KT 10SM BKN027 OVC032 13/08 A2980 RMK AO2 SLP089 60000 T01280083 10133 20128 58007
Loading
Personal Weather Stations






























Interactive Weather Map
Tropical Storm Tracking
New forecast layout! Learn more

10-Day Weather Forecast

Advertisements
Track Severe Weather on mobile